Terminal Aerodrome Forecast
Issued by NWS King Salmon, AK

Home | Current Version | Previous Version | Text Only | Print | Product List | Glossary On
Versions: 1 2 3 4 5 6 7 8 9 10 11 12 13 14 15 16 17 18 19
000
FTAK31 PANC 222114 AAA
TAFAKN
TAF AMD
PAKN 222114Z 2221/2318 VRB05KT P6SM FEW070 BKN090
     FM222300 19008KT P6SM SCT025 BKN050
     FM231200 17005KT P6SM SCT003 BKN025 OVC050=

USA.gov is the U.S. government's official web portal to all federal, state and local government web resources and services.